Airfield :
LOGIN :

Register | Disclaimer

   EN    FR    IT 

 










Legend :    VFR   Marginal VFR   IFR   Intensive IFR   Very Intensive IFR
Visi :
Ceiling :
>= 8 km
>= 3000ft
5 to 8 km
1000 to 3000 ft
1500m to 5 km
500 to 1000 ft
800 to 1500m
200 to 500 ft
< 800m
< 200 ft
Symbols :   Thunderstorms  Fog  Heavy snow  Heavy precipitations  Wind > 20 kt
SIGMETs :     Misc.  Thunderstorms  Icing  Turbulence  Mountain Waves  Volcanic Ashes







- Airport Elevation : 33 ft
- IATA code : PLQ


EYPA - Palanga

CURRENT METAR :
  • 180350Z 01005KT CAVOK M02/M02 Q0999

EXPIRED METARs :
  • 180320Z 03006KT 9999 BKN047 M02/M02 Q0998
  • 180250Z AUTO 02008KT 9999 BKN045/// BKN095/// M01/M02 Q0998
  • 180220Z AUTO 03008KT 9999 -UP FEW027/// OVC045/// M01/M02 Q0998
  • 180150Z AUTO 36004KT 9999 -UP BKN005/// M01/M01 Q0997
  • 180120Z AUTO 01004KT 9999 -UP BKN004/// BKN019/// BKN069/// M01/M01 Q0997

TAF TAF EYPA
Valid from the 18 at 00:00 until the 19 at 00:00 UTC


172302Z 1800/1824 02010KT 7000 BKN030
TEMPO 1800/1810 1500 SHSN BKN005 BKN015CB
BECMG 1810/1811 32014KT
TEMPO 1812/1824 SHSNRA SCT005 BKN020CB
No reported NOTAMs for that airfield.



MET'MAP, your aeronautical weather chart ! - Copyright ORBIFLY December 2007 - Disclaimer

ORBIFLY MET'MAP TEAM :

Programming & Development : Alexandra Zaïnal
Concept & Development : Baudouin d'Aumeries
Co-Development & Prog : Marc-Olivier Méhu
Technical & hardware support : Manuel Goepfert

Contact : metmap@orbifly.com




SOURCES & CREDITS :

   NOAA